createdAt,value
2018-12-25T00:00:51.814Z,10.80
2018-12-25T00:03:39.668Z,10.80
2018-12-25T00:06:31.693Z,10.80
2018-12-25T00:09:21.817Z,10.80
2018-12-25T00:12:10.500Z,10.80
2018-12-25T00:15:00.947Z,10.70
2018-12-25T00:17:44.119Z,10.80
2018-12-25T00:20:29.131Z,10.70
2018-12-25T00:23:11.288Z,10.80
2018-12-25T00:25:54.831Z,10.80
2018-12-25T00:28:42.504Z,11.00
2018-12-25T00:31:36.644Z,10.90
2018-12-25T00:34:26.848Z,10.90
2018-12-25T00:37:18.852Z,10.90
2018-12-25T00:40:10.827Z,10.90
2018-12-25T00:42:58.682Z,10.90
2018-12-25T00:45:45.876Z,10.90
2018-12-25T00:48:36.605Z,11.10
2018-12-25T00:51:19.380Z,11.20
2018-12-25T00:54:16.911Z,11.10
2018-12-25T00:57:00.730Z,11.10
2018-12-25T00:59:47.940Z,11.00
2018-12-25T01:02:38.292Z,11.10
2018-12-25T01:05:23.617Z,11.00
2018-12-25T01:08:05.142Z,11.00
2018-12-25T01:10:52.427Z,11.00
2018-12-25T01:13:43.872Z,11.10
2018-12-25T01:16:30.557Z,11.10
2018-12-25T01:19:23.228Z,11.10
2018-12-25T01:22:03.975Z,11.00
2018-12-25T01:24:49.722Z,11.10
2018-12-25T01:27:37.878Z,11.10
2018-12-25T01:30:25.232Z,11.00
2018-12-25T01:33:11.735Z,11.00
2018-12-25T01:35:57.882Z,11.00
2018-12-25T01:38:44.696Z,11.00
2018-12-25T01:41:31.556Z,11.10
2018-12-25T01:44:14.639Z,11.20
2018-12-25T01:46:59.601Z,11.20
2018-12-25T01:50:04.588Z,11.30
2018-12-25T01:52:56.274Z,11.40
2018-12-25T01:55:40.667Z,11.40
2018-12-25T02:01:30.834Z,11.50
2018-12-25T02:04:14.620Z,11.40
2018-12-25T02:07:01.957Z,11.30
2018-12-25T02:09:46.708Z,11.40
2018-12-25T02:12:41.930Z,11.40
2018-12-25T02:15:31.938Z,11.40
2018-12-25T02:18:17.210Z,11.40
2018-12-25T02:21:04.026Z,11.50
2018-12-25T02:23:47.791Z,11.70
2018-12-25T02:26:33.369Z,11.70
2018-12-25T02:29:20.486Z,11.70
2018-12-25T02:32:14.723Z,12.00
2018-12-25T02:35:02.407Z,12.10
2018-12-25T02:37:48.954Z,12.10
2018-12-25T02:40:36.691Z,12.10
2018-12-25T02:43:22.888Z,12.00
2018-12-25T02:46:14.012Z,11.90
2018-12-25T02:48:58.311Z,12.00
2018-12-25T02:51:44.816Z,11.90
2018-12-25T02:54:32.982Z,11.90
2018-12-25T02:57:28.622Z,12.00
2018-12-25T03:00:34.985Z,11.90
2018-12-25T03:03:30.727Z,12.00
2018-12-25T03:06:17.250Z,12.00
2018-12-25T03:09:09.367Z,12.10
2018-12-25T03:11:57.397Z,12.10
2018-12-25T03:14:43.547Z,12.10
2018-12-25T03:17:29.608Z,12.10
2018-12-25T03:20:41.440Z,12.00
2018-12-25T03:23:29.832Z,12.00
2018-12-25T03:26:15.740Z,11.90
2018-12-25T03:29:08.371Z,11.90
2018-12-25T03:31:52.685Z,11.90
2018-12-25T03:34:44.013Z,12.00
2018-12-25T03:37:44.062Z,12.00
2018-12-25T03:40:28.829Z,11.90
2018-12-25T03:43:13.799Z,11.90
2018-12-25T03:46:05.068Z,12.00
2018-12-25T03:48:57.819Z,12.00
2018-12-25T03:51:43.754Z,12.10
2018-12-25T03:54:30.874Z,12.10
2018-12-25T03:57:15.535Z,12.10
2018-12-25T04:00:03.841Z,12.20
2018-12-25T04:02:49.772Z,12.30
2018-12-25T04:05:36.856Z,12.40
2018-12-25T04:08:20.590Z,12.40
2018-12-25T04:11:07.403Z,12.40
2018-12-25T04:14:02.816Z,12.30
2018-12-25T04:16:54.847Z,12.30
2018-12-25T04:19:47.142Z,12.30
2018-12-25T04:22:34.094Z,12.50
2018-12-25T04:25:19.936Z,12.60
2018-12-25T04:28:06.442Z,12.60
2018-12-25T04:30:51.409Z,12.40
2018-12-25T04:33:37.916Z,12.20
2018-12-25T04:36:24.991Z,12.20
2018-12-25T04:39:15.539Z,12.20
2018-12-25T04:42:04.801Z,12.30
2018-12-25T04:44:56.083Z,12.30
2018-12-25T04:47:41.498Z,12.20
2018-12-25T04:50:29.507Z,12.20
2018-12-25T04:53:15.119Z,12.20
2018-12-25T04:56:09.124Z,12.40
2018-12-25T04:59:01.249Z,12.40
2018-12-25T05:01:48.461Z,12.40
2018-12-25T05:04:32.764Z,12.40
2018-12-25T05:07:36.086Z,12.50
2018-12-25T05:10:20.830Z,12.50
2018-12-25T05:13:09.154Z,12.50
2018-12-25T05:15:55.985Z,12.50
2018-12-25T05:18:40.955Z,12.50
2018-12-25T05:21:26.844Z,12.50
2018-12-25T05:24:14.583Z,12.60
2018-12-25T05:27:02.972Z,12.50
2018-12-25T05:30:08.498Z,12.40
2018-12-25T05:33:00.867Z,12.40
2018-12-25T05:36:10.156Z,12.40
2018-12-25T05:46:04.804Z,12.30
2018-12-25T05:48:53.462Z,12.40
2018-12-25T05:51:41.174Z,12.50
2018-12-25T05:54:30.507Z,12.70
2018-12-25T05:57:22.542Z,12.70
2018-12-25T06:00:08.129Z,12.80
2018-12-25T06:03:02.922Z,12.70
2018-12-25T06:05:46.053Z,12.60
2018-12-25T06:08:43.568Z,12.70
2018-12-25T06:11:39.186Z,12.70
2018-12-25T06:14:27.024Z,12.70
2018-12-25T06:17:13.844Z,12.70
2018-12-25T06:20:04.148Z,12.90
2018-12-25T06:22:55.411Z,12.90
2018-12-25T06:25:44.101Z,12.80
2018-12-25T06:28:33.069Z,12.80
2018-12-25T06:31:21.721Z,12.80
2018-12-25T06:34:15.901Z,12.90
2018-12-25T06:37:03.940Z,12.80
2018-12-25T06:39:49.192Z,12.80
2018-12-25T06:42:32.963Z,12.70
2018-12-25T06:45:17.971Z,12.70
2018-12-25T06:48:05.044Z,12.60
2018-12-25T06:51:03.563Z,12.60
2018-12-25T06:53:43.013Z,12.60
2018-12-25T06:56:27.632Z,12.60
2018-12-25T06:59:22.082Z,12.70
2018-12-25T07:02:07.705Z,12.50
2018-12-25T07:04:54.515Z,12.50
2018-12-25T07:07:41.763Z,12.60
2018-12-25T07:10:51.187Z,12.70
2018-12-25T07:13:38.920Z,12.70
2018-12-25T07:16:34.738Z,12.60
2018-12-25T07:19:35.929Z,12.70
2018-12-25T07:22:22.699Z,12.80
2018-12-25T07:25:13.809Z,12.80
2018-12-25T07:28:00.669Z,12.80
2018-12-25T07:30:45.020Z,12.80
2018-12-25T07:36:40.716Z,12.70
2018-12-25T07:39:26.267Z,12.70
2018-12-25T07:42:13.730Z,12.70
2018-12-25T07:45:00.251Z,12.80
2018-12-25T07:47:48.936Z,12.80
2018-12-25T07:50:39.130Z,12.80
2018-12-25T07:53:23.168Z,12.80
2018-12-25T07:56:07.221Z,12.90
2018-12-25T07:58:53.109Z,12.80
2018-12-25T08:01:41.101Z,12.70
2018-12-25T08:04:27.038Z,12.70
2018-12-25T08:07:12.250Z,12.60
2018-12-25T08:10:03.248Z,12.60
2018-12-25T08:12:48.039Z,12.60
2018-12-25T08:15:34.283Z,12.60
2018-12-25T08:18:20.129Z,12.60
2018-12-25T08:21:02.687Z,12.60
2018-12-25T08:23:47.961Z,12.60
2018-12-25T08:26:33.319Z,12.50
2018-12-25T08:29:28.035Z,12.50
2018-12-25T08:32:09.931Z,12.60
2018-12-25T08:35:01.645Z,12.60
2018-12-25T08:37:48.163Z,12.70
2018-12-25T08:40:30.298Z,12.70
2018-12-25T08:43:17.318Z,12.70
2018-12-25T08:46:02.276Z,12.70
2018-12-25T08:48:47.733Z,12.70
2018-12-25T08:51:37.794Z,12.80
2018-12-25T08:54:23.198Z,12.70
2018-12-25T08:57:11.201Z,12.70
2018-12-25T09:00:07.332Z,12.70
2018-12-25T09:02:56.333Z,12.70
2018-12-25T09:05:42.118Z,12.60
2018-12-25T09:08:34.499Z,12.70
2018-12-25T09:11:16.626Z,12.70
2018-12-25T09:14:05.318Z,12.60
2018-12-25T09:16:51.167Z,12.50
2018-12-25T09:19:54.262Z,12.50
2018-12-25T09:22:42.369Z,12.50
2018-12-25T09:25:25.731Z,12.50
2018-12-25T09:28:12.235Z,12.50
2018-12-25T09:31:00.277Z,12.60
2018-12-25T09:33:48.532Z,12.70
2018-12-25T09:36:36.096Z,12.70
2018-12-25T09:39:20.385Z,12.70
2018-12-25T09:42:07.221Z,12.70
2018-12-25T09:44:51.002Z,12.70
2018-12-25T09:47:42.117Z,12.60
2018-12-25T09:50:28.004Z,12.50
2018-12-25T09:53:14.934Z,12.40
2018-12-25T09:56:07.773Z,12.40
2018-12-25T09:58:55.773Z,12.40
2018-12-25T10:01:41.058Z,12.40
2018-12-25T10:04:25.088Z,12.40
2018-12-25T10:07:09.181Z,12.50
2018-12-25T10:09:57.345Z,12.40
2018-12-25T10:12:50.405Z,12.50
2018-12-25T10:15:51.698Z,12.40
2018-12-25T10:18:36.661Z,12.40
2018-12-25T10:21:20.097Z,12.40
2018-12-25T10:24:05.613Z,12.40
2018-12-25T10:26:50.418Z,12.40
2018-12-25T10:29:34.077Z,12.40
2018-12-25T10:32:16.370Z,12.50
2018-12-25T10:35:00.478Z,12.40
2018-12-25T10:37:44.115Z,12.40
2018-12-25T10:40:27.940Z,12.30
2018-12-25T10:43:11.857Z,12.40
2018-12-25T10:45:58.403Z,12.40
2018-12-25T10:48:45.167Z,12.40
2018-12-25T10:51:27.116Z,12.40
2018-12-25T10:54:14.390Z,12.50
2018-12-25T10:56:56.699Z,12.40
2018-12-25T10:59:42.289Z,12.40
2018-12-25T11:02:27.298Z,12.30
2018-12-25T11:05:12.242Z,12.40
2018-12-25T11:08:01.183Z,12.40
2018-12-25T11:10:45.230Z,12.50
2018-12-25T11:13:29.405Z,12.40
2018-12-25T11:16:16.129Z,12.40
2018-12-25T11:19:06.279Z,12.50
2018-12-25T11:22:02.490Z,12.50
2018-12-25T11:24:57.019Z,12.60
2018-12-25T11:27:39.975Z,12.50
2018-12-25T11:30:37.864Z,12.50
2018-12-25T11:33:22.763Z,12.50
2018-12-25T11:36:08.348Z,12.50
2018-12-25T11:38:55.421Z,12.50
2018-12-25T11:41:49.469Z,12.50
2018-12-25T11:44:33.146Z,12.40
2018-12-25T11:47:18.093Z,12.40
2018-12-25T11:50:06.039Z,12.40
2018-12-25T11:52:49.837Z,12.40
2018-12-25T11:55:34.483Z,12.40
2018-12-25T11:58:19.764Z,12.50
2018-12-25T12:01:04.722Z,12.50
2018-12-25T12:03:57.391Z,12.50
2018-12-25T12:06:43.318Z,12.50
2018-12-25T12:09:41.667Z,12.60
2018-12-25T12:12:42.463Z,12.50
2018-12-25T12:15:30.717Z,12.50
2018-12-25T12:18:12.951Z,12.60
2018-12-25T12:20:58.887Z,12.70
2018-12-25T12:23:45.402Z,12.80
2018-12-25T12:26:39.512Z,12.90
2018-12-25T12:29:27.919Z,12.70
2018-12-25T12:32:22.369Z,12.70
2018-12-25T12:35:06.409Z,12.80
2018-12-25T12:37:51.993Z,12.80
2018-12-25T12:40:38.240Z,12.80
2018-12-25T12:43:29.042Z,12.80
2018-12-25T12:46:13.374Z,12.80
2018-12-25T12:49:00.629Z,12.90
2018-12-25T12:51:51.594Z,13.00
2018-12-25T12:54:58.362Z,13.10
2018-12-25T12:57:50.395Z,13.10
2018-12-25T13:00:35.976Z,13.00
2018-12-25T13:03:20.397Z,13.00
2018-12-25T13:06:07.190Z,12.90
2018-12-25T13:08:57.386Z,12.90
2018-12-25T13:11:57.547Z,12.90
2018-12-25T13:14:53.547Z,12.80
2018-12-25T13:17:41.586Z,12.90
2018-12-25T13:20:30.509Z,12.80
2018-12-25T13:23:20.930Z,12.80
2018-12-25T13:26:06.526Z,12.70
2018-12-25T13:28:54.817Z,12.70
2018-12-25T13:31:39.536Z,12.60
2018-12-25T13:34:33.049Z,12.60
2018-12-25T13:37:21.565Z,12.60
2018-12-25T13:40:22.079Z,12.50
2018-12-25T13:43:34.384Z,12.50
2018-12-25T13:46:54.329Z,12.60
2018-12-25T13:49:44.220Z,12.50
2018-12-25T13:52:30.579Z,12.50
2018-12-25T13:55:25.587Z,12.50
2018-12-25T13:58:22.706Z,12.50
2018-12-25T14:01:14.765Z,12.50
2018-12-25T14:04:09.971Z,12.50
2018-12-25T14:07:03.668Z,12.50
2018-12-25T14:10:05.608Z,12.50
2018-12-25T14:12:59.589Z,12.40
2018-12-25T14:16:02.988Z,12.40
2018-12-25T14:19:25.083Z,12.30
2018-12-25T14:22:45.427Z,12.40
2018-12-25T14:25:52.999Z,12.40
2018-12-25T14:28:48.189Z,12.40
2018-12-25T14:31:43.354Z,12.40
2018-12-25T14:34:41.509Z,12.50
2018-12-25T14:37:35.037Z,12.50
2018-12-25T14:40:54.109Z,12.50
2018-12-25T14:44:05.261Z,12.40
2018-12-25T14:47:05.701Z,12.40
2018-12-25T14:50:00.605Z,12.40
2018-12-25T14:53:32.946Z,12.30
2018-12-25T14:56:36.093Z,12.30
2018-12-25T15:00:02.890Z,12.30
2018-12-25T15:03:29.001Z,12.30
2018-12-25T15:06:27.971Z,12.30
2018-12-25T15:09:35.699Z,12.20
2018-12-25T15:12:40.055Z,12.30
2018-12-25T15:15:50.197Z,12.20
2018-12-25T15:18:56.373Z,12.20
2018-12-25T15:22:33.985Z,12.20
2018-12-25T15:25:28.606Z,12.20
2018-12-25T15:28:42.160Z,12.20
2018-12-25T15:31:58.508Z,12.20
2018-12-25T15:34:48.966Z,12.20
2018-12-25T15:37:52.971Z,12.20
2018-12-25T15:41:13.749Z,12.20
2018-12-25T15:44:09.903Z,12.20
2018-12-25T15:47:13.803Z,12.10
2018-12-25T15:50:05.669Z,12.10
2018-12-25T15:53:01.110Z,12.10
2018-12-25T15:56:05.127Z,12.10
2018-12-25T15:59:19.329Z,12.10
2018-12-25T16:02:13.640Z,12.10
2018-12-25T16:05:20.550Z,12.10
2018-12-25T16:08:25.560Z,12.10
2018-12-25T16:11:29.460Z,12.10
2018-12-25T16:14:37.949Z,12.00
2018-12-25T16:17:49.482Z,12.00
2018-12-25T16:20:50.444Z,12.00
2018-12-25T16:23:45.542Z,12.00
2018-12-25T16:26:37.561Z,12.00
2018-12-25T16:29:24.363Z,12.00
2018-12-25T16:32:09.074Z,12.00
2018-12-25T16:34:56.505Z,12.00
2018-12-25T16:37:43.620Z,12.00
2018-12-25T16:40:32.587Z,12.00
2018-12-25T16:43:21.512Z,12.00
2018-12-25T16:46:04.722Z,12.00
2018-12-25T16:48:54.557Z,12.00
2018-12-25T16:51:41.059Z,12.00
2018-12-25T16:54:25.108Z,12.00
2018-12-25T16:57:08.187Z,12.00
2018-12-25T16:59:54.124Z,11.90
2018-12-25T17:02:39.088Z,12.00
2018-12-25T17:05:22.514Z,12.00
2018-12-25T17:08:04.975Z,12.00
2018-12-25T17:10:48.413Z,12.00
2018-12-25T17:13:34.914Z,12.00
2018-12-25T17:16:23.695Z,12.00
2018-12-25T17:19:12.233Z,11.90
2018-12-25T17:21:57.547Z,11.90
2018-12-25T17:24:41.560Z,11.90
2018-12-25T17:27:27.144Z,11.90
2018-12-25T17:30:17.232Z,11.90
2018-12-25T17:33:00.494Z,11.90
2018-12-25T17:35:42.751Z,11.90
2018-12-25T17:38:26.769Z,11.90
2018-12-25T17:41:11.667Z,11.90
2018-12-25T17:43:56.045Z,11.80
2018-12-25T17:46:51.721Z,11.90
2018-12-25T17:49:37.692Z,11.90
2018-12-25T17:52:21.972Z,11.90
2018-12-25T17:55:07.766Z,11.80
2018-12-25T17:57:54.796Z,11.80
2018-12-25T18:00:42.437Z,11.80
2018-12-25T18:03:29.238Z,11.80
2018-12-25T18:06:15.446Z,11.70
2018-12-25T18:08:57.631Z,11.70
2018-12-25T18:11:43.580Z,11.70
2018-12-25T18:14:27.619Z,11.70
2018-12-25T18:17:18.654Z,11.70
2018-12-25T18:19:57.830Z,11.70
2018-12-25T18:22:41.552Z,11.70
2018-12-25T18:25:24.077Z,11.60
2018-12-25T18:28:05.718Z,11.60
2018-12-25T18:30:51.616Z,11.60
2018-12-25T18:33:34.669Z,11.60
2018-12-25T18:36:26.751Z,11.60
2018-12-25T18:39:14.770Z,11.50
2018-12-25T18:41:58.482Z,11.50
2018-12-25T18:44:42.839Z,11.50
2018-12-25T18:47:29.701Z,11.50
2018-12-25T18:50:15.240Z,11.40
2018-12-25T18:52:57.742Z,11.40
2018-12-25T18:55:42.115Z,11.40
2018-12-25T18:58:28.023Z,11.40
2018-12-25T19:01:15.152Z,11.40
2018-12-25T19:03:58.574Z,11.40
2018-12-25T19:06:44.741Z,11.40
2018-12-25T19:09:26.674Z,11.40
2018-12-25T19:12:09.792Z,11.40
2018-12-25T19:15:20.532Z,11.40
2018-12-25T19:18:05.802Z,11.40
2018-12-25T19:20:49.599Z,11.40
2018-12-25T19:23:35.179Z,11.50
2018-12-25T19:26:19.787Z,11.50
2018-12-25T19:29:01.739Z,11.40
2018-12-25T19:31:46.711Z,11.50
2018-12-25T19:34:31.363Z,11.50
2018-12-25T19:37:18.865Z,11.50
2018-12-25T19:40:02.227Z,11.40
2018-12-25T19:42:45.899Z,11.40
2018-12-25T19:45:30.606Z,11.40
2018-12-25T19:48:18.352Z,11.40
2018-12-25T19:51:03.318Z,11.40
2018-12-25T19:53:47.639Z,11.40
2018-12-25T19:56:31.676Z,11.40
2018-12-25T19:59:15.882Z,11.40
2018-12-25T20:01:59.907Z,11.40
2018-12-25T20:04:50.629Z,11.30
2018-12-25T20:08:10.608Z,11.30
2018-12-25T20:11:34.607Z,11.40
2018-12-25T20:15:00.683Z,11.30
2018-12-25T20:18:33.910Z,11.30
2018-12-25T20:21:52.994Z,11.30
2018-12-25T20:25:07.722Z,11.30
2018-12-25T20:28:30.778Z,11.30
2018-12-25T20:31:45.240Z,11.40
2018-12-25T20:35:05.543Z,11.30
2018-12-25T20:38:20.366Z,11.40
2018-12-25T20:41:29.584Z,11.30
2018-12-25T20:44:52.351Z,11.30
2018-12-25T20:48:18.913Z,11.30
2018-12-25T20:51:31.709Z,11.30
2018-12-25T20:55:01.292Z,11.40
2018-12-25T20:58:16.557Z,11.40
2018-12-25T21:01:41.097Z,11.40
2018-12-25T21:05:07.887Z,11.40
2018-12-25T21:08:21.938Z,11.40
2018-12-25T21:11:42.933Z,11.40
2018-12-25T21:15:04.152Z,11.30
2018-12-25T21:18:23.253Z,11.30
2018-12-25T21:21:52.504Z,11.20
2018-12-25T21:25:09.716Z,11.30
2018-12-25T21:27:40.897Z,11.30
2018-12-25T21:30:24.255Z,11.30
2018-12-25T21:33:07.381Z,11.30
2018-12-25T21:35:51.737Z,11.30
2018-12-25T21:38:34.944Z,11.30
2018-12-25T21:41:19.973Z,11.30
2018-12-25T21:44:06.395Z,11.30
2018-12-25T21:46:52.883Z,11.30
2018-12-25T21:49:36.626Z,11.30
2018-12-25T21:52:20.360Z,11.30
2018-12-25T21:55:02.878Z,11.40
2018-12-25T21:57:47.065Z,11.40
2018-12-25T22:00:31.279Z,11.40
2018-12-25T22:03:13.440Z,11.40
2018-12-25T22:05:56.917Z,11.40
2018-12-25T22:08:41.886Z,11.40
2018-12-25T22:11:25.632Z,11.40
2018-12-25T22:14:11.824Z,11.40
2018-12-25T22:16:56.606Z,11.40
2018-12-25T22:19:40.009Z,11.40
2018-12-25T22:22:25.444Z,11.40
2018-12-25T22:25:09.507Z,11.40
2018-12-25T22:27:53.847Z,11.50
2018-12-25T22:30:37.293Z,11.50
2018-12-25T22:33:18.922Z,11.50
2018-12-25T22:36:02.301Z,11.50
2018-12-25T22:38:46.361Z,11.50
2018-12-25T22:41:30.394Z,11.50
2018-12-25T22:44:12.782Z,11.50
2018-12-25T22:46:58.532Z,11.40
2018-12-25T22:49:42.586Z,11.40
2018-12-25T22:52:25.023Z,11.50
2018-12-25T22:55:08.528Z,11.50
2018-12-25T22:57:52.628Z,11.50
2018-12-25T23:00:35.392Z,11.60
2018-12-25T23:03:17.022Z,11.60
2018-12-25T23:06:01.638Z,11.60
2018-12-25T23:08:44.764Z,11.50
2018-12-25T23:11:28.808Z,11.60
2018-12-25T23:14:11.939Z,11.60
2018-12-25T23:16:54.758Z,11.60
2018-12-25T23:19:40.989Z,11.70
2018-12-25T23:22:30.987Z,11.60
2018-12-25T23:25:18.830Z,11.70
2018-12-25T23:28:02.928Z,11.70
2018-12-25T23:30:46.931Z,11.80
2018-12-25T23:33:28.864Z,11.80
2018-12-25T23:36:14.907Z,11.80
2018-12-25T23:38:57.879Z,11.80
2018-12-25T23:41:41.245Z,11.80
2018-12-25T23:44:22.863Z,11.70
2018-12-25T23:47:07.886Z,11.70
2018-12-25T23:49:50.691Z,11.70
2018-12-25T23:52:34.743Z,11.70
2018-12-25T23:55:18.742Z,11.60
2018-12-25T23:58:01.874Z,11.50
